Time;durP1;ratioP1;P1;durP2;ratioP2;P2;SDS_P1;SDS_P2;PMS_P1;PMS_P2;Temp;Humidity;BMP_temperature;BMP_pressure;BME280_temperature;BME280_humidity;BME280_pressure;Samples;Min_cycle;Max_cycle;Signal;HPM_P1;HPM_P2
2022/08/20 00:02:39;;;;;;;;;;;16.70;99.90;;;;;;5124714;27;19912;-57
2022/08/20 00:05:22;;;;;;;;;;;16.60;99.90;;;;;;5124792;27;19918;-56
2022/08/20 00:08:03;;;;;;;;;;;16.60;99.90;;;;;;5124348;27;20403;-56
2022/08/20 00:10:44;;;;;;;;;;;16.60;99.90;;;;;;5124402;27;19912;-56
2022/08/20 00:13:28;;;;;;;;;;;16.60;99.90;;;;;;5123832;27;19918;-57
2022/08/20 00:16:10;;;;;;;;;;;16.50;99.90;;;;;;5124581;27;19918;-56
2022/08/20 00:18:51;;;;;;;;;;;16.50;99.90;;;;;;5123572;27;19911;-57
2022/08/20 00:21:31;;;;;;;;;;;16.50;99.90;;;;;;5124132;27;19922;-57
2022/08/20 00:24:10;;;;;;;;;;;16.50;99.90;;;;;;5096883;27;19946;-56
2022/08/20 00:26:50;;;;;;;;;;;16.50;99.90;;;;;;5125025;27;20256;-56
2022/08/20 00:29:31;;;;;;;;;;;16.50;99.90;;;;;;5123809;27;19945;-56
2022/08/20 00:32:10;;;;;;;;;;;16.50;99.90;;;;;;5125042;27;20320;-56
2022/08/20 00:34:50;;;;;;;;;;;16.50;99.90;;;;;;5090924;27;19930;-57
2022/08/20 00:37:30;;;;;;;;;;;16.50;99.90;;;;;;5124302;27;19918;-56
2022/08/20 00:40:11;;;;;;;;;;;16.40;99.90;;;;;;5103874;27;19946;-56
2022/08/20 00:42:52;;;;;;;;;;;16.40;99.90;;;;;;5113374;27;19926;-56
2022/08/20 00:45:34;;;;;;;;;;;16.30;99.90;;;;;;5124545;27;19943;-57
2022/08/20 00:48:14;;;;;;;;;;;16.30;99.90;;;;;;5124914;27;20395;-57
2022/08/20 00:50:56;;;;;;;;;;;16.30;99.90;;;;;;5124584;27;19912;-57
2022/08/20 00:53:37;;;;;;;;;;;16.30;99.90;;;;;;5121858;27;20370;-58
2022/08/20 00:56:32;;;;;;;;;;;16.30;99.90;;;;;;5124771;27;19930;-56
2022/08/20 00:59:14;;;;;;;;;;;16.20;99.90;;;;;;5124491;27;19926;-56
2022/08/20 01:01:54;;;;;;;;;;;16.20;99.90;;;;;;5125438;27;20403;-56
2022/08/20 01:04:35;;;;;;;;;;;16.20;99.90;;;;;;5145567;27;19912;-56
2022/08/20 01:07:19;;;;;;;;;;;16.20;99.90;;;;;;5099758;27;20427;-56
2022/08/20 01:09:59;;;;;;;;;;;16.10;99.90;;;;;;5077256;27;20373;-56
2022/08/20 01:12:39;;;;;;;;;;;16.10;99.90;;;;;;5113800;27;19922;-56
2022/08/20 01:15:22;;;;;;;;;;;16.10;99.90;;;;;;5120611;27;19918;-56
2022/08/20 01:18:02;;;;;;;;;;;16.00;99.90;;;;;;5103552;27;20353;-56
2022/08/20 01:20:43;;;;;;;;;;;16.00;99.90;;;;;;5123072;27;19916;-56
2022/08/20 01:23:29;;;;;;;;;;;16.00;99.90;;;;;;5124864;27;19918;-56
2022/08/20 01:26:10;;;;;;;;;;;16.10;99.90;;;;;;5149274;22;20220;-52
2022/08/20 01:28:52;;;;;;;;;;;16.00;99.90;;;;;;5120652;27;19912;-55
2022/08/20 01:31:33;;;;;;;;;;;16.00;99.90;;;;;;5125084;27;19938;-55
2022/08/20 01:34:14;;;;;;;;;;;15.90;99.90;;;;;;5145853;27;19911;-56
2022/08/20 01:36:56;;;;;;;;;;;15.90;99.90;;;;;;5125033;27;19916;-55
2022/08/20 01:39:36;;;;;;;;;;;15.90;99.90;;;;;;5104055;27;19926;-54
2022/08/20 01:42:20;;;;;;;;;;;15.90;99.90;;;;;;5126237;27;20415;-55
2022/08/20 01:45:00;;;;;;;;;;;15.90;99.90;;;;;;5119985;27;19922;-54
2022/08/20 01:47:40;;;;;;;;;;;15.90;99.90;;;;;;5103913;27;20422;-54
2022/08/20 01:50:23;;;;;;;;;;;15.90;99.90;;;;;;5124549;27;19911;-54
2022/08/20 01:53:06;;;;;;;;;;;15.80;99.90;;;;;;5125610;27;19922;-55
2022/08/20 01:55:47;;;;;;;;;;;15.80;99.90;;;;;;5113767;27;19923;-54
2022/08/20 01:58:28;;;;;;;;;;;15.80;99.90;;;;;;5124650;27;19953;-55
2022/08/20 02:01:18;;;;;;;;;;;15.70;99.90;;;;;;5124660;27;19925;-55
2022/08/20 02:03:59;;;;;;;;;;;15.70;99.90;;;;;;5125668;27;20242;-54
2022/08/20 02:06:39;;;;;;;;;;;15.70;99.90;;;;;;5124912;27;19915;-54
2022/08/20 02:09:20;;;;;;;;;;;15.70;99.90;;;;;;5124087;27;20199;-56
2022/08/20 02:12:01;;;;;;;;;;;15.70;99.90;;;;;;5125343;27;19912;-55
2022/08/20 02:14:42;;;;;;;;;;;15.70;99.90;;;;;;5122739;27;20403;-54
2022/08/20 02:17:24;;;;;;;;;;;15.70;99.90;;;;;;5125199;27;19918;-54
2022/08/20 02:20:07;;;;;;;;;;;15.70;99.90;;;;;;5124738;27;20189;-56
2022/08/20 02:22:48;;;;;;;;;;;15.70;99.90;;;;;;5125689;27;20414;-55
2022/08/20 02:25:30;;;;;;;;;;;15.70;99.90;;;;;;5125095;27;19915;-55
2022/08/20 02:28:13;;;;;;;;;;;15.70;99.90;;;;;;5125206;27;19918;-54
2022/08/20 02:30:55;;;;;;;;;;;15.70;99.90;;;;;;5084416;28;19912;-54
2022/08/20 02:33:36;;;;;;;;;;;15.70;99.90;;;;;;5124885;27;20319;-54
2022/08/20 02:36:16;;;;;;;;;;;15.70;99.90;;;;;;5125089;27;19922;-56
2022/08/20 02:38:57;;;;;;;;;;;15.70;99.90;;;;;;5124768;27;19953;-54
2022/08/20 02:41:38;;;;;;;;;;;15.70;99.90;;;;;;5124954;27;19934;-55
2022/08/20 02:44:19;;;;;;;;;;;15.70;99.90;;;;;;5125622;27;19912;-54
2022/08/20 02:47:00;;;;;;;;;;;15.70;99.90;;;;;;5124660;27;20323;-56
2022/08/20 02:49:39;;;;;;;;;;;15.70;99.90;;;;;;5124810;27;19912;-56
2022/08/20 02:52:19;;;;;;;;;;;15.70;99.90;;;;;;5121861;27;19925;-56
2022/08/20 02:54:59;;;;;;;;;;;15.70;99.90;;;;;;5123451;27;20102;-56
2022/08/20 02:57:39;;;;;;;;;;;15.60;99.90;;;;;;5103333;27;19912;-54
2022/08/20 03:00:20;;;;;;;;;;;15.60;99.90;;;;;;5102545;27;19934;-54
2022/08/20 03:03:01;;;;;;;;;;;15.60;99.90;;;;;;5123514;27;19939;-54
2022/08/20 03:05:43;;;;;;;;;;;15.70;99.90;;;;;;5111735;27;19939;-55
2022/08/20 03:08:23;;;;;;;;;;;15.70;99.90;;;;;;5100856;27;19912;-55
2022/08/20 03:11:05;;;;;;;;;;;15.70;99.90;;;;;;5117347;27;20293;-55
2022/08/20 03:13:44;;;;;;;;;;;15.70;99.90;;;;;;5123441;27;19918;-54
2022/08/20 03:16:24;;;;;;;;;;;15.70;99.90;;;;;;5123681;27;19926;-55
2022/08/20 03:19:04;;;;;;;;;;;15.70;99.90;;;;;;5123460;27;19912;-54
2022/08/20 03:21:44;;;;;;;;;;;15.70;99.90;;;;;;5122652;27;19912;-54
2022/08/20 03:24:24;;;;;;;;;;;15.70;99.90;;;;;;5125217;27;19973;-54
2022/08/20 03:27:04;;;;;;;;;;;15.70;99.90;;;;;;5124669;27;20280;-54
2022/08/20 03:29:45;;;;;;;;;;;15.80;99.90;;;;;;5145474;27;19912;-54
2022/08/20 03:32:25;;;;;;;;;;;15.70;99.90;;;;;;5125270;27;19912;-55
2022/08/20 03:35:06;;;;;;;;;;;15.70;99.90;;;;;;5119546;27;20296;-55
2022/08/20 03:37:46;;;;;;;;;;;15.70;99.90;;;;;;5105118;27;19918;-55
2022/08/20 03:40:29;;;;;;;;;;;15.70;99.90;;;;;;5124670;27;20291;-55
2022/08/20 03:43:09;;;;;;;;;;;15.70;99.90;;;;;;5125858;27;19957;-55
2022/08/20 03:45:51;;;;;;;;;;;15.70;99.90;;;;;;5112933;27;19912;-54
2022/08/20 03:48:32;;;;;;;;;;;15.70;99.90;;;;;;5104074;27;19919;-55
2022/08/20 03:51:12;;;;;;;;;;;15.80;99.90;;;;;;5125074;27;19934;-56
2022/08/20 03:53:51;;;;;;;;;;;15.80;99.90;;;;;;5125382;27;20304;-55
2022/08/20 03:56:31;;;;;;;;;;;15.80;99.90;;;;;;5125149;27;19918;-55
2022/08/20 03:59:11;;;;;;;;;;;15.80;99.90;;;;;;5124585;27;19918;-55
2022/08/20 04:01:52;;;;;;;;;;;15.70;99.90;;;;;;5125877;27;19916;-54
2022/08/20 04:04:32;;;;;;;;;;;15.70;99.90;;;;;;5124289;27;19934;-55
2022/08/20 04:07:12;;;;;;;;;;;15.70;99.90;;;;;;5124596;27;19911;-53
2022/08/20 04:09:52;;;;;;;;;;;15.70;99.90;;;;;;5125098;27;19912;-55
2022/08/20 04:12:32;;;;;;;;;;;15.70;99.90;;;;;;5124736;27;19912;-54
2022/08/20 04:15:14;;;;;;;;;;;15.70;99.90;;;;;;5118192;27;19916;-55
2022/08/20 04:17:55;;;;;;;;;;;15.70;99.90;;;;;;5125236;27;19922;-54
2022/08/20 04:20:36;;;;;;;;;;;15.80;99.90;;;;;;5103910;27;19912;-54
2022/08/20 04:23:16;;;;;;;;;;;15.80;99.90;;;;;;5125407;27;19912;-55
2022/08/20 04:25:56;;;;;;;;;;;15.80;99.90;;;;;;5125248;27;19922;-56
2022/08/20 04:28:36;;;;;;;;;;;15.80;99.90;;;;;;5125045;27;19911;-54
2022/08/20 04:31:16;;;;;;;;;;;15.80;99.90;;;;;;5125714;27;20381;-55
2022/08/20 04:33:57;;;;;;;;;;;15.80;99.90;;;;;;5126331;27;19918;-55
2022/08/20 04:36:37;;;;;;;;;;;15.80;99.90;;;;;;5125094;27;19922;-54
2022/08/20 04:39:17;;;;;;;;;;;15.80;99.90;;;;;;5124820;27;20301;-56
2022/08/20 04:41:58;;;;;;;;;;;15.80;99.90;;;;;;5125565;27;19912;-54
2022/08/20 04:44:39;;;;;;;;;;;15.90;99.90;;;;;;5123069;27;20376;-54
2022/08/20 04:47:21;;;;;;;;;;;15.90;99.90;;;;;;5125319;27;19918;-55
2022/08/20 04:50:01;;;;;;;;;;;15.90;99.90;;;;;;5124737;27;19941;-56
2022/08/20 04:52:41;;;;;;;;;;;16.00;99.90;;;;;;5125290;27;20266;-54
2022/08/20 04:55:22;;;;;;;;;;;16.10;99.90;;;;;;5116926;27;19930;-54
2022/08/20 04:58:04;;;;;;;;;;;16.20;99.90;;;;;;5125155;27;19918;-55
2022/08/20 05:00:46;;;;;;;;;;;16.30;99.90;;;;;;5124512;27;20110;-54
2022/08/20 05:03:26;;;;;;;;;;;16.40;99.90;;;;;;5124980;27;20422;-55
2022/08/20 05:06:06;;;;;;;;;;;16.50;99.90;;;;;;5104357;27;19918;-54
2022/08/20 05:08:47;;;;;;;;;;;16.50;99.90;;;;;;5125186;27;19922;-54
2022/08/20 05:11:28;;;;;;;;;;;16.60;99.90;;;;;;5112990;27;20276;-55
2022/08/20 05:14:09;;;;;;;;;;;16.70;99.90;;;;;;5125894;27;20126;-55
2022/08/20 05:16:49;;;;;;;;;;;16.70;99.90;;;;;;5113232;27;19918;-54
2022/08/20 05:19:30;;;;;;;;;;;16.80;99.90;;;;;;5104101;27;19912;-54
2022/08/20 05:22:11;;;;;;;;;;;16.80;99.90;;;;;;5125157;27;20415;-55
2022/08/20 05:24:51;;;;;;;;;;;16.80;99.90;;;;;;5089429;27;20328;-54
2022/08/20 05:27:31;;;;;;;;;;;16.90;99.90;;;;;;5125048;27;19915;-54
2022/08/20 05:30:11;;;;;;;;;;;16.90;99.90;;;;;;5125260;27;19918;-54
2022/08/20 05:32:52;;;;;;;;;;;17.00;99.90;;;;;;5105139;27;20505;-54
2022/08/20 05:35:33;;;;;;;;;;;17.00;99.90;;;;;;5124845;27;20386;-55
2022/08/20 05:38:15;;;;;;;;;;;16.90;99.90;;;;;;5125390;27;19918;-54
2022/08/20 05:40:55;;;;;;;;;;;16.90;99.90;;;;;;5125100;27;19918;-54
2022/08/20 05:43:35;;;;;;;;;;;17.00;99.90;;;;;;5125589;27;19911;-55
2022/08/20 05:46:15;;;;;;;;;;;17.00;99.90;;;;;;5145921;27;19911;-55
2022/08/20 05:48:56;;;;;;;;;;;16.90;99.90;;;;;;5124848;27;19911;-54
2022/08/20 05:51:37;;;;;;;;;;;16.90;99.90;;;;;;5125735;27;20299;-55
2022/08/20 05:54:18;;;;;;;;;;;16.90;99.90;;;;;;5125702;27;19916;-55
2022/08/20 05:56:57;;;;;;;;;;;16.90;99.90;;;;;;5104775;27;19915;-56
2022/08/20 05:59:38;;;;;;;;;;;17.00;99.90;;;;;;5124784;27;20377;-56
2022/08/20 06:05:16;;;;;;;;;;;17.10;99.90;;;;;;5125497;27;20296;-54
2022/08/20 06:07:57;;;;;;;;;;;17.20;99.90;;;;;;5125139;27;20159;-53
2022/08/20 06:10:38;;;;;;;;;;;17.40;99.90;;;;;;5085364;28;19916;-55
2022/08/20 06:13:18;;;;;;;;;;;17.50;99.90;;;;;;5104869;27;19926;-54
2022/08/20 06:15:58;;;;;;;;;;;17.50;99.90;;;;;;5105218;27;19950;-55
2022/08/20 06:18:38;;;;;;;;;;;17.60;99.90;;;;;;5123521;27;19915;-56
2022/08/20 06:21:18;;;;;;;;;;;17.60;99.90;;;;;;5113733;27;20425;-55
2022/08/20 06:23:58;;;;;;;;;;;17.70;99.90;;;;;;5123818;27;20274;-55
2022/08/20 06:26:38;;;;;;;;;;;17.80;99.90;;;;;;5122833;27;20393;-54
2022/08/20 06:29:18;;;;;;;;;;;17.90;99.90;;;;;;5123111;27;20206;-55
2022/08/20 06:31:57;;;;;;;;;;;17.80;99.90;;;;;;5143594;27;19911;-55
2022/08/20 06:34:37;;;;;;;;;;;17.80;99.90;;;;;;5100637;27;19926;-54
2022/08/20 06:37:18;;;;;;;;;;;17.90;99.90;;;;;;5122211;27;19918;-54
2022/08/20 06:39:59;;;;;;;;;;;17.90;99.90;;;;;;5123344;27;19911;-56
2022/08/20 06:42:42;;;;;;;;;;;17.90;99.90;;;;;;5109176;27;20749;-56
2022/08/20 06:45:23;;;;;;;;;;;18.00;99.90;;;;;;5112158;27;19916;-54
2022/08/20 06:48:07;;;;;;;;;;;18.10;99.90;;;;;;5143393;27;19925;-55
2022/08/20 06:50:47;;;;;;;;;;;18.20;99.90;;;;;;5121247;27;20518;-55
2022/08/20 06:53:27;;;;;;;;;;;18.30;99.90;;;;;;5124037;27;19918;-54
2022/08/20 06:56:07;;;;;;;;;;;18.30;99.90;;;;;;5123278;27;19919;-55
2022/08/20 06:58:47;;;;;;;;;;;18.30;99.90;;;;;;5122110;27;19919;-55
2022/08/20 07:01:27;;;;;;;;;;;18.40;99.90;;;;;;5110728;27;19957;-54
2022/08/20 07:04:07;;;;;;;;;;;18.50;99.90;;;;;;5124033;27;19911;-55
2022/08/20 07:06:50;;;;;;;;;;;18.60;99.90;;;;;;5117665;27;19912;-55
2022/08/20 07:09:29;;;;;;;;;;;18.70;99.90;;;;;;5105461;27;19912;-55
2022/08/20 07:12:09;;;;;;;;;;;18.80;99.90;;;;;;5123551;27;19916;-55
2022/08/20 07:14:49;;;;;;;;;;;18.90;99.90;;;;;;5119500;27;19912;-54
2022/08/20 07:17:29;;;;;;;;;;;19.10;99.90;;;;;;5093431;27;20309;-54
2022/08/20 07:20:10;;;;;;;;;;;19.20;99.90;;;;;;5123469;27;20385;-54
2022/08/20 07:22:51;;;;;;;;;;;19.30;99.90;;;;;;5123176;27;19933;-56
2022/08/20 07:25:32;;;;;;;;;;;19.30;99.90;;;;;;5114973;27;20421;-55
2022/08/20 07:28:15;;;;;;;;;;;19.40;99.90;;;;;;5123291;27;19912;-55
2022/08/20 07:33:53;;;;;;;;;;;19.30;99.90;;;;;;5113782;27;20320;-55
2022/08/20 07:36:33;;;;;;;;;;;19.40;99.90;;;;;;5123372;27;20377;-55
2022/08/20 07:39:13;;;;;;;;;;;19.50;99.90;;;;;;5119991;27;19912;-55
2022/08/20 07:42:01;;;;;;;;;;;19.70;99.90;;;;;;5120873;27;19915;-55
2022/08/20 07:44:42;;;;;;;;;;;19.90;99.90;;;;;;5114489;27;19922;-55
2022/08/20 07:47:22;;;;;;;;;;;20.00;99.90;;;;;;5107416;27;20332;-55
2022/08/20 07:50:02;;;;;;;;;;;20.20;99.90;;;;;;5109641;27;20334;-55
2022/08/20 07:52:44;;;;;;;;;;;20.10;99.90;;;;;;5124052;27;19920;-55
2022/08/20 07:55:25;;;;;;;;;;;20.10;99.90;;;;;;5115386;27;19912;-55
2022/08/20 07:58:08;;;;;;;;;;;20.20;99.90;;;;;;5122370;27;19912;-55
2022/08/20 08:00:49;;;;;;;;;;;20.30;99.90;;;;;;5123610;27;19937;-56
2022/08/20 08:03:30;;;;;;;;;;;20.30;99.90;;;;;;5123411;27;19912;-55
2022/08/20 08:06:10;;;;;;;;;;;20.40;99.90;;;;;;5109896;27;19919;-56
2022/08/20 08:08:51;;;;;;;;;;;20.50;99.90;;;;;;5106243;27;19926;-56
2022/08/20 08:11:31;;;;;;;;;;;20.60;99.90;;;;;;5124483;27;19916;-56
2022/08/20 08:14:13;;;;;;;;;;;20.80;99.90;;;;;;5124342;27;19922;-56
2022/08/20 08:16:54;;;;;;;;;;;21.00;99.90;;;;;;5106244;27;19922;-56
2022/08/20 08:19:37;;;;;;;;;;;21.10;99.90;;;;;;5103590;27;19926;-56
2022/08/20 08:22:18;;;;;;;;;;;21.30;99.90;;;;;;5107215;27;19934;-56
2022/08/20 08:25:01;;;;;;;;;;;21.40;99.90;;;;;;5098415;27;19981;-56
2022/08/20 08:27:40;;;;;;;;;;;21.70;99.90;;;;;;5081681;27;19917;-55
2022/08/20 08:30:21;;;;;;;;;;;21.80;99.90;;;;;;5096551;27;19923;-56
2022/08/20 08:36:01;;;;;;;;;;;21.60;99.90;;;;;;5111326;27;19912;-56
2022/08/20 08:38:43;;;;;;;;;;;21.70;99.90;;;;;;5123085;27;19911;-56
2022/08/20 08:41:28;;;;;;;;;;;21.90;99.90;;;;;;5126467;27;19911;-56
2022/08/20 08:44:11;;;;;;;;;;;22.00;99.90;;;;;;5085254;28;19916;-55
2022/08/20 08:46:55;;;;;;;;;;;22.20;99.90;;;;;;5114201;27;20557;-56
2022/08/20 08:49:35;;;;;;;;;;;22.30;99.90;;;;;;5120899;27;19912;-55
2022/08/20 08:52:18;;;;;;;;;;;22.40;99.90;;;;;;5130102;27;19949;-55
2022/08/20 08:55:01;;;;;;;;;;;22.80;99.90;;;;;;5117662;27;20281;-56
2022/08/20 08:57:42;;;;;;;;;;;22.80;99.90;;;;;;5122197;27;20132;-56
2022/08/20 09:00:22;;;;;;;;;;;22.60;99.90;;;;;;5110669;27;19919;-55
2022/08/20 09:03:06;;;;;;;;;;;22.90;99.90;;;;;;5123130;27;20381;-56
2022/08/20 09:05:48;;;;;;;;;;;22.90;99.90;;;;;;5124667;27;20363;-55
2022/08/20 09:08:31;;;;;;;;;;;22.70;99.90;;;;;;5122711;27;19934;-55
2022/08/20 09:11:12;;;;;;;;;;;22.30;99.90;;;;;;5093908;27;19954;-56
2022/08/20 09:13:53;;;;;;;;;;;22.00;99.90;;;;;;5124591;27;20288;-55
2022/08/20 09:16:33;;;;;;;;;;;22.00;99.90;;;;;;5121892;27;19912;-55
2022/08/20 09:19:25;;;;;;;;;;;22.00;99.90;;;;;;5102264;27;19918;-55
2022/08/20 09:22:08;;;;;;;;;;;22.10;99.90;;;;;;5124462;27;19918;-56
2022/08/20 09:24:49;;;;;;;;;;;22.00;99.90;;;;;;5121484;27;19947;-55
2022/08/20 09:27:30;;;;;;;;;;;22.00;99.90;;;;;;5105293;27;20381;-57
2022/08/20 09:30:12;;;;;;;;;;;21.80;99.90;;;;;;5103048;27;20335;-55
2022/08/20 09:32:52;;;;;;;;;;;21.60;99.90;;;;;;5123954;27;19918;-55
2022/08/20 09:35:33;;;;;;;;;;;21.50;99.90;;;;;;5122484;27;19916;-55
2022/08/20 09:38:13;;;;;;;;;;;21.60;99.90;;;;;;5123562;27;19912;-55
2022/08/20 09:40:53;;;;;;;;;;;21.80;99.90;;;;;;5104104;27;19927;-55
2022/08/20 09:43:33;;;;;;;;;;;22.10;99.90;;;;;;5124833;27;19912;-56
2022/08/20 09:46:13;;;;;;;;;;;22.40;99.90;;;;;;5104104;27;19916;-55
2022/08/20 09:48:53;;;;;;;;;;;22.60;99.90;;;;;;5106185;27;19919;-56
2022/08/20 09:51:32;;;;;;;;;;;22.50;99.90;;;;;;5124621;27;20280;-55
2022/08/20 09:54:12;;;;;;;;;;;22.60;99.90;;;;;;5088423;28;19912;-56
2022/08/20 09:56:52;;;;;;;;;;;22.50;99.90;;;;;;5110800;27;19919;-55
2022/08/20 09:59:33;;;;;;;;;;;22.60;99.90;;;;;;5123234;27;19926;-55
2022/08/20 10:02:13;;;;;;;;;;;22.50;99.90;;;;;;5105050;27;20395;-55
2022/08/20 10:04:53;;;;;;;;;;;22.40;99.90;;;;;;5120845;27;19912;-55
2022/08/20 10:07:33;;;;;;;;;;;22.50;99.90;;;;;;5125817;27;19925;-55
2022/08/20 10:10:14;;;;;;;;;;;22.30;99.90;;;;;;5125021;27;19912;-55
2022/08/20 10:12:54;;;;;;;;;;;22.00;99.90;;;;;;5105185;27;19912;-56
2022/08/20 10:15:34;;;;;;;;;;;22.00;99.90;;;;;;5125024;27;19918;-55
2022/08/20 10:18:14;;;;;;;;;;;22.00;99.90;;;;;;5125658;27;19919;-55
2022/08/20 10:20:54;;;;;;;;;;;22.20;99.90;;;;;;5104145;27;20498;-55
2022/08/20 10:23:34;;;;;;;;;;;22.40;99.90;;;;;;5105320;27;19926;-56
2022/08/20 10:26:13;;;;;;;;;;;22.60;99.90;;;;;;5105418;27;20281;-55
2022/08/20 10:28:53;;;;;;;;;;;22.60;99.90;;;;;;5124998;27;19911;-55
2022/08/20 10:31:33;;;;;;;;;;;22.40;99.90;;;;;;5124842;27;19912;-55
2022/08/20 10:34:13;;;;;;;;;;;22.10;99.90;;;;;;5125996;27;19922;-56
2022/08/20 10:36:53;;;;;;;;;;;21.70;99.90;;;;;;5104993;27;19912;-56
2022/08/20 10:39:33;;;;;;;;;;;21.40;99.90;;;;;;5104525;27;20300;-55
2022/08/20 10:42:12;;;;;;;;;;;21.10;99.90;;;;;;5125765;27;19916;-55
2022/08/20 10:44:52;;;;;;;;;;;20.90;99.90;;;;;;5117422;27;19923;-55
2022/08/20 10:47:32;;;;;;;;;;;20.70;99.90;;;;;;5122983;27;19925;-55
2022/08/20 10:50:18;;;;;;;;;;;20.70;99.90;;;;;;5122736;27;20297;-55
2022/08/20 10:52:58;;;;;;;;;;;20.60;99.90;;;;;;5116613;27;19912;-56
2022/08/20 10:55:38;;;;;;;;;;;20.70;99.90;;;;;;5114221;27;19916;-56
2022/08/20 10:58:18;;;;;;;;;;;20.80;99.90;;;;;;5103456;27;20320;-56
2022/08/20 11:00:58;;;;;;;;;;;21.00;99.90;;;;;;5122540;27;19953;-55
2022/08/20 11:03:37;;;;;;;;;;;21.10;99.90;;;;;;5124551;27;20442;-56
2022/08/20 11:06:17;;;;;;;;;;;21.30;99.90;;;;;;5123257;27;19922;-55
2022/08/20 11:08:57;;;;;;;;;;;21.60;99.90;;;;;;5102512;27;19912;-55
2022/08/20 11:11:37;;;;;;;;;;;21.80;99.90;;;;;;5124662;27;19965;-55
2022/08/20 11:14:17;;;;;;;;;;;21.90;99.90;;;;;;5104311;27;20516;-55
2022/08/20 11:16:56;;;;;;;;;;;22.10;99.90;;;;;;5123622;27;20276;-55
2022/08/20 11:19:40;;;;;;;;;;;22.20;99.90;;;;;;5123434;27;19918;-56
2022/08/20 11:22:19;;;;;;;;;;;22.30;99.90;;;;;;5124400;27;19912;-55
2022/08/20 11:24:59;;;;;;;;;;;22.30;99.90;;;;;;5120034;27;19918;-55
2022/08/20 11:27:40;;;;;;;;;;;22.30;99.90;;;;;;5097704;27;19916;-55
2022/08/20 11:30:22;;;;;;;;;;;22.40;99.90;;;;;;5087990;27;19924;-55
2022/08/20 11:33:02;;;;;;;;;;;22.40;99.90;;;;;;5123248;27;19912;-55
2022/08/20 11:35:43;;;;;;;;;;;22.30;99.90;;;;;;5112870;27;19918;-55
2022/08/20 11:38:23;;;;;;;;;;;22.20;99.90;;;;;;5123807;27;19922;-55
2022/08/20 11:41:03;;;;;;;;;;;22.20;99.90;;;;;;5124057;27;19912;-57
2022/08/20 11:43:43;;;;;;;;;;;22.30;99.90;;;;;;5124278;27;19918;-55
2022/08/20 11:46:23;;;;;;;;;;;22.40;99.90;;;;;;5103253;27;20443;-55
2022/08/20 11:49:03;;;;;;;;;;;22.40;99.90;;;;;;5123602;27;20447;-56
2022/08/20 11:51:42;;;;;;;;;;;22.60;99.90;;;;;;5103955;27;19912;-55
2022/08/20 11:54:22;;;;;;;;;;;22.60;99.90;;;;;;5125204;27;20305;-56
2022/08/20 11:57:02;;;;;;;;;;;22.50;99.90;;;;;;5124490;27;19918;-55
2022/08/20 11:59:42;;;;;;;;;;;22.30;99.90;;;;;;5164339;27;20318;-55
2022/08/20 12:02:22;;;;;;;;;;;22.30;99.90;;;;;;5124796;27;20385;-56
2022/08/20 12:05:01;;;;;;;;;;;22.30;99.90;;;;;;5098285;27;19916;-55
2022/08/20 12:07:41;;;;;;;;;;;22.30;99.90;;;;;;5124485;27;19922;-55
2022/08/20 12:10:23;;;;;;;;;;;22.50;99.90;;;;;;5124032;27;19922;-55
2022/08/20 12:13:03;;;;;;;;;;;22.60;99.90;;;;;;5124797;27;19911;-56
2022/08/20 12:15:42;;;;;;;;;;;22.80;99.90;;;;;;5124450;27;20018;-55
2022/08/20 12:18:22;;;;;;;;;;;23.00;99.90;;;;;;5103665;27;20324;-56
2022/08/20 12:21:02;;;;;;;;;;;23.20;99.90;;;;;;5124035;27;19918;-55
2022/08/20 12:23:42;;;;;;;;;;;23.30;99.90;;;;;;5122004;27;19911;-55
2022/08/20 12:26:22;;;;;;;;;;;23.30;99.90;;;;;;5103533;27;19916;-54
2022/08/20 12:29:01;;;;;;;;;;;23.40;99.90;;;;;;5103331;27;19916;-55
2022/08/20 12:31:41;;;;;;;;;;;23.40;99.90;;;;;;5124728;27;19918;-54
2022/08/20 12:34:21;;;;;;;;;;;23.30;99.90;;;;;;5124119;27;19922;-56
2022/08/20 12:37:03;;;;;;;;;;;23.00;99.90;;;;;;5123084;27;19911;-55
2022/08/20 12:39:46;;;;;;;;;;;22.90;99.90;;;;;;5123781;27;19912;-55
2022/08/20 12:42:29;;;;;;;;;;;23.00;99.90;;;;;;5103957;27;19953;-55
2022/08/20 12:45:09;;;;;;;;;;;23.10;99.90;;;;;;5103329;27;19912;-55
2022/08/20 12:47:50;;;;;;;;;;;23.30;99.90;;;;;;5103164;27;19970;-55
2022/08/20 12:50:30;;;;;;;;;;;23.50;99.90;;;;;;5082552;27;20506;-55
2022/08/20 12:53:10;;;;;;;;;;;23.70;99.90;;;;;;5110589;27;19916;-55
2022/08/20 12:55:49;;;;;;;;;;;23.80;99.90;;;;;;5113364;27;19916;-54
2022/08/20 12:58:29;;;;;;;;;;;23.70;99.90;;;;;;5124938;27;19912;-54
2022/08/20 13:01:09;;;;;;;;;;;23.70;99.90;;;;;;5125343;27;19931;-56
2022/08/20 13:03:49;;;;;;;;;;;23.90;99.90;;;;;;5105512;27;20134;-54
2022/08/20 13:06:29;;;;;;;;;;;24.00;99.90;;;;;;5125308;27;20316;-54
2022/08/20 13:09:08;;;;;;;;;;;24.00;99.90;;;;;;5124482;27;20369;-54
2022/08/20 13:11:48;;;;;;;;;;;23.80;99.90;;;;;;5097615;27;19934;-54
2022/08/20 13:14:28;;;;;;;;;;;23.90;99.90;;;;;;5112574;27;19912;-55
2022/08/20 13:17:08;;;;;;;;;;;23.90;99.90;;;;;;5119534;27;19923;-56
2022/08/20 13:19:48;;;;;;;;;;;24.00;99.90;;;;;;5076142;28;19921;-54
2022/08/20 13:22:28;;;;;;;;;;;24.00;99.90;;;;;;5118389;27;19911;-55
2022/08/20 13:25:09;;;;;;;;;;;24.20;99.90;;;;;;5156591;27;19915;-54
2022/08/20 13:27:49;;;;;;;;;;;24.30;99.90;;;;;;5122032;27;19911;-54
2022/08/20 13:30:32;;;;;;;;;;;24.40;99.90;;;;;;5121457;27;19911;-55
2022/08/20 13:33:12;;;;;;;;;;;24.50;99.90;;;;;;5100847;27;19913;-55
2022/08/20 13:35:52;;;;;;;;;;;24.60;99.90;;;;;;5091817;27;19923;-54
2022/08/20 13:38:31;;;;;;;;;;;24.60;99.90;;;;;;5119516;27;20350;-55
2022/08/20 13:41:11;;;;;;;;;;;24.60;99.90;;;;;;5088521;22;19931;-55
2022/08/20 13:43:51;;;;;;;;;;;24.60;99.90;;;;;;5142980;27;19915;-58
2022/08/20 13:46:31;;;;;;;;;;;24.50;99.90;;;;;;5118308;27;20399;-55
2022/08/20 13:49:11;;;;;;;;;;;24.50;99.90;;;;;;5127290;27;19912;-54
2022/08/20 13:51:50;;;;;;;;;;;24.50;99.90;;;;;;5112137;27;20376;-56
2022/08/20 13:54:30;;;;;;;;;;;24.40;99.90;;;;;;5110382;27;19916;-54
2022/08/20 13:57:11;;;;;;;;;;;24.20;99.90;;;;;;5118926;27;19934;-54
2022/08/20 13:59:53;;;;;;;;;;;23.90;99.90;;;;;;5097938;27;19958;-57
2022/08/20 14:02:33;;;;;;;;;;;23.70;99.90;;;;;;5080120;28;19923;-55
2022/08/20 14:05:14;;;;;;;;;;;23.50;99.90;;;;;;5122979;27;19942;-56
2022/08/20 14:07:54;;;;;;;;;;;23.50;99.90;;;;;;5117079;27;19929;-56
2022/08/20 14:10:35;;;;;;;;;;;23.50;99.90;;;;;;5118668;27;19915;-58
2022/08/20 14:13:16;;;;;;;;;;;23.70;99.90;;;;;;5114492;27;20071;-54
2022/08/20 14:15:57;;;;;;;;;;;24.20;99.90;;;;;;5097589;27;19916;-57
2022/08/20 14:18:37;;;;;;;;;;;24.50;99.90;;;;;;5118182;27;19912;-54
2022/08/20 14:21:17;;;;;;;;;;;24.50;99.90;;;;;;5116247;27;19934;-56
2022/08/20 14:23:57;;;;;;;;;;;24.70;99.90;;;;;;5089269;27;19928;-54
2022/08/20 14:26:38;;;;;;;;;;;24.70;99.90;;;;;;5121046;27;19912;-55
2022/08/20 14:29:21;;;;;;;;;;;24.80;99.90;;;;;;5098377;27;20332;-56
2022/08/20 14:32:01;;;;;;;;;;;24.80;99.90;;;;;;5118659;27;19918;-54
2022/08/20 14:34:41;;;;;;;;;;;24.80;99.90;;;;;;5120877;27;19916;-54
2022/08/20 14:37:22;;;;;;;;;;;24.80;99.90;;;;;;5121984;27;19912;-57
2022/08/20 14:40:03;;;;;;;;;;;24.80;99.90;;;;;;5112955;27;19918;-56
2022/08/20 14:42:43;;;;;;;;;;;24.80;99.90;;;;;;5107051;27;19946;-55
2022/08/20 14:45:23;;;;;;;;;;;24.90;99.90;;;;;;5123118;27;19918;-55
2022/08/20 14:48:06;;;;;;;;;;;25.00;99.90;;;;;;5122940;27;19931;-56
2022/08/20 14:50:46;;;;;;;;;;;25.00;99.90;;;;;;5107701;27;19927;-54
2022/08/20 14:53:26;;;;;;;;;;;24.70;99.90;;;;;;5104902;27;19973;-56
2022/08/20 14:56:06;;;;;;;;;;;24.40;99.90;;;;;;5121685;27;20273;-55
2022/08/20 14:58:46;;;;;;;;;;;24.20;99.90;;;;;;5123732;27;20396;-58
2022/08/20 15:01:25;;;;;;;;;;;23.90;99.90;;;;;;5125058;27;19916;-59
2022/08/20 15:04:05;;;;;;;;;;;23.70;99.90;;;;;;5103535;27;19919;-54
2022/08/20 15:06:45;;;;;;;;;;;23.50;99.90;;;;;;5122201;27;19911;-56
2022/08/20 15:09:25;;;;;;;;;;;23.20;99.90;;;;;;5116919;27;19918;-56
2022/08/20 15:12:05;;;;;;;;;;;23.10;99.90;;;;;;5119202;27;20373;-56
2022/08/20 15:14:44;;;;;;;;;;;23.00;99.90;;;;;;5082132;28;19916;-54
2022/08/20 15:17:25;;;;;;;;;;;23.00;99.90;;;;;;5103457;27;19920;-54
2022/08/20 15:20:08;;;;;;;;;;;22.90;99.90;;;;;;5122663;27;19965;-56
2022/08/20 15:22:49;;;;;;;;;;;22.80;99.90;;;;;;5118365;27;19916;-55
2022/08/20 15:25:32;;;;;;;;;;;22.70;99.90;;;;;;5118896;27;19922;-54
2022/08/20 15:28:12;;;;;;;;;;;22.60;99.90;;;;;;5120229;27;20361;-56
2022/08/20 15:30:51;;;;;;;;;;;22.50;99.90;;;;;;5103005;27;19935;-57
2022/08/20 15:33:31;;;;;;;;;;;22.10;99.90;;;;;;5107560;27;19916;-56
2022/08/20 15:36:11;;;;;;;;;;;21.90;99.90;;;;;;5099550;27;19953;-56
2022/08/20 15:38:51;;;;;;;;;;;21.70;99.90;;;;;;5099388;27;19912;-55
2022/08/20 15:41:31;;;;;;;;;;;21.50;99.90;;;;;;5120638;27;19934;-54
2022/08/20 15:44:10;;;;;;;;;;;21.30;99.90;;;;;;5129229;27;19912;-56